Flight Track Log - Related Links

Times and Time Zones

All times are in EDT time to prevent confusion due to time zone crossing. See the SWA256 flight status page for this flight to view local times or setup timezone preferences in your user account.

Time Position Orientation Groundspeed Altitude Reporting Facility
EDT Latitude Longitude Course Direction KTS MPH feet Rate Location/Type
Mon 01:54:29 AM 36.0761 -115.1683 258° West 164 189 3,100  Level Los Angeles Center
Mon 01:55:42 AM 36.0606 -115.2558 258° West 248 285 5,200 1,714 Climbing Los Angeles Center
Mon 01:56:49 AM 35.9831 -115.2972 203° Southwest 276 318 7,100 2,106 Climbing Los Angeles Center
Mon 01:58:13 AM 35.8742 -115.3122 186° South 282 325 10,500 1,738 Climbing Los Angeles Center
Mon 01:59:14 AM 35.7978 -115.3078 177° South 312 359 11,300 2,066 Climbing Los Angeles Center
Mon 02:00:15 AM 35.6644 -115.2925 175° South 384 442 14,700 3,197 Climbing Los Angeles Center
Mon 02:01:16 AM 35.5497 -115.2994 183° South 408 470 17,800 2,705 Climbing Los Angeles Center
Mon 02:02:17 AM 35.4361 -115.3319 193° South 422 486 20,200 2,115 Climbing Los Angeles Center
Mon 02:03:18 AM 35.3161 -115.3719 195° South 438 504 22,100 1,869 Climbing Los Angeles Center
Mon 02:04:19 AM 35.1933 -115.4128 195° South 450 518 24,000 1,770 Climbing Los Angeles Center
Mon 02:05:20 AM 35.0778 -115.4497 195° South 459 528 25,700 1,756 Climbing Los Angeles Center
Mon 02:06:22 AM 34.9772 -115.4814 194° South 463 533 27,600 1,131 Climbing Los Angeles Center
Mon 02:07:22 AM 34.8181 -115.5328 195° South 463 533 28,000 198 Climbing Los Angeles Center
Mon 02:08:23 AM 34.6808 -115.5747 194° South 455 524 28,000  Level Los Angeles Center
Mon 02:09:24 AM 34.5569 -115.6156 195° South 457 526 28,000  Level Los Angeles Center
Mon 02:10:25 AM 34.4339 -115.6533 194° South 455 524 28,000  Level Los Angeles Center
Mon 02:11:26 AM 34.3269 -115.6875 195° South 459 528 28,000  Level Los Angeles Center
Mon 02:12:27 AM 34.1803 -115.7347 195° South 456 525 28,000  Level Los Angeles Center
Mon 02:13:28 AM 34.0567 -115.7728 194° South 458 527 28,000  Level Los Angeles Center
Mon 02:14:29 AM 33.9314 -115.8125 195° South 465 535 28,000  Level Los Angeles Center
Mon 02:15:29 AM 33.8083 -115.8519 195° South 460 529 28,000 -446 Level Los Angeles Center
Mon 02:16:30 AM 33.6853 -115.8906 195° South 458 527 27,100 -934 Descending Los Angeles Center
Mon 02:17:31 AM 33.5606 -115.9292 194° South 459 528 26,100 -1,377 Descending Los Angeles Center
Mon 02:18:32 AM 33.4528 -116.0153 214° Southwest 468 539 24,300 -2,410 Descending Los Angeles Center
Mon 02:19:33 AM 33.3550 -116.1114 219° Southwest 458 527 21,200 -2,975 Descending Los Angeles Center
Mon 02:20:33 AM 33.2614 -116.2006 219° Southwest 442 509 18,300 -2,826 Descending Los Angeles Center
Mon 02:21:34 AM 33.1739 -116.2844 219° Southwest 415 478 15,500 -2,656 Descending Los Angeles Center
Mon 02:22:35 AM 33.0881 -116.3664 219° Southwest 402 463 12,900 -1,721 Descending Los Angeles Center
Mon 02:23:36 AM 32.9972 -116.4489 217° Southwest 358 412 12,000 -590 Descending Los Angeles Center
Mon 02:24:37 AM 32.9161 -116.4953 206° Southwest 331 381 11,700 -893 Descending Los Angeles Center
Mon 02:25:37 AM 32.8422 -116.5442 209° Southwest 326 375 10,200 -1,240 Descending Los Angeles Center
Mon 02:26:38 AM 32.8067 -116.6106 238° Southwest 311 358 9,200 -1,180 Descending Los Angeles Center
Mon 02:27:39 AM 32.7603 -116.7069 240° Southwest 288 331 7,800 -1,230 Descending Los Angeles Center
Mon 02:28:40 AM 32.7261 -116.7772 240° Southwest 259 298 6,700 -1,082 Descending Los Angeles Center
Mon 02:29:41 AM 32.6972 -116.8486 244° Southwest 245 282 5,600 -1,200 Descending Los Angeles Center
Mon 02:30:20 AM 32.6833 -116.9000 252° West 231 266 4,700 -1,140 Descending Southern California TRACON
Mon 02:31:21 AM 32.6833 -116.9833 270° West 223 257 3,700 -1,053 Descending Southern California TRACON
Mon 02:32:14 AM 32.7000 -117.0333 292° West 208 239 2,700 -1,105 Descending Southern California TRACON
Mon 02:33:15 AM 32.7167 -117.1000 287° West 171 197 1,600 -942 Descending Southern California TRACON
Mon 02:34:15 AM 32.7167 -117.1333 270° West 141 162 800 -600 Descending Southern California TRACON
Mon 02:35:45 AM 32.7361 -117.2036 288° West 141 162 100 -467 Descending Los Angeles Center
Mon 02:37:00 AM 32.7333 -117.1833 90° East  Level FlightAware Approximate

Login

Don't have an account? Register now (free) for customized features, flight alerts, and more!